Time;durP1;ratioP1;P1;durP2;ratioP2;P2;SDS_P1;SDS_P2;PMS_P1;PMS_P2;Temp;Humidity;BMP_temperature;BMP_pressure;BME280_temperature;BME280_humidity;BME280_pressure;Samples;Min_cycle;Max_cycle;Signal;HPM_P1;HPM_P2
2023/07/07 00:01:49;;;;;;;1.08;0.70;;;22.50;59.00;;;;;;8310542;28;20491;-73
2023/07/07 00:05:50;;;;;;;0.77;0.60;;;22.50;59.00;;;;;;8310141;28;20659;-73
2023/07/07 00:09:50;;;;;;;0.57;0.57;;;22.50;59.00;;;;;;8310285;28;20034;-73
2023/07/07 00:13:54;;;;;;;0.70;0.70;;;22.50;59.00;;;;;;8310154;28;20060;-73
2023/07/07 00:17:55;;;;;;;0.70;0.60;;;22.50;59.00;;;;;;8327855;28;20029;-73
2023/07/07 00:21:58;;;;;;;0.98;0.75;;;22.50;59.00;;;;;;8327770;28;20034;-73
2023/07/07 00:26:04;;;;;;;1.13;0.90;;;22.50;59.00;;;;;;8310302;28;20483;-73
2023/07/07 00:30:05;;;;;;;0.60;0.50;;;22.50;59.00;;;;;;8327506;28;20043;-73
2023/07/07 00:34:06;;;;;;;0.90;0.70;;;22.50;59.00;;;;;;8310266;28;20029;-73
2023/07/07 00:38:06;;;;;;;0.50;0.50;;;22.50;59.00;;;;;;8327304;28;20038;-73
2023/07/07 00:42:10;;;;;;;1.15;0.90;;;22.40;59.00;;;;;;8309954;28;20120;-73
2023/07/07 00:46:14;;;;;;;1.65;0.82;;;22.40;59.00;;;;;;8327353;28;20108;-73
2023/07/07 00:50:16;;;;;;;0.70;0.57;;;22.50;59.00;;;;;;8327252;28;20030;-73
2023/07/07 00:54:23;;;;;;;0.70;0.70;;;22.50;59.00;;;;;;8330340;28;20506;-73
2023/07/07 00:58:25;;;;;;;0.60;0.60;;;22.50;59.00;;;;;;8333337;28;20057;-73
2023/07/07 01:02:26;;;;;;;0.60;0.43;;;22.50;59.00;;;;;;8333230;28;20402;-73
2023/07/07 01:06:31;;;;;;;0.98;0.80;;;22.50;59.00;;;;;;8332886;28;20033;-73
2023/07/07 01:10:32;;;;;;;0.90;0.70;;;22.40;59.00;;;;;;8332849;28;20512;-73
2023/07/07 01:14:33;;;;;;;;;;;22.50;59.00;;;;;;8315434;28;20510;-73
2023/07/07 01:18:57;;;;;;;0.87;0.77;;;22.50;59.00;;;;;;8332781;28;20444;-73
2023/07/07 01:23:13;;;;;;;0.90;0.70;;;22.40;59.00;;;;;;8332457;28;20037;-73
2023/07/07 01:27:46;;;;;;;1.05;0.60;;;22.50;59.10;;;;;;8332337;28;20025;-73
2023/07/07 01:31:58;;;;;;;1.13;0.70;;;22.40;59.00;;;;;;8299526;28;20105;-73
2023/07/07 01:35:58;;;;;;;0.65;0.57;;;22.40;59.00;;;;;;8306302;28;20483;-73
2023/07/07 01:40:00;;;;;;;0.77;0.60;;;22.40;59.00;;;;;;8314301;28;20619;-73
2023/07/07 01:44:15;;;;;;;0.75;0.60;;;22.40;59.00;;;;;;8313949;28;20044;-73
2023/07/07 01:48:34;;;;;;;1.33;0.73;;;22.40;59.10;;;;;;8331748;28;20029;-73
2023/07/07 01:52:43;;;;;;;0.60;0.60;;;22.50;59.10;;;;;;8331489;28;20669;-73
2023/07/07 01:56:46;;;;;;;0.93;0.63;;;22.50;59.10;;;;;;8313701;28;20029;-73
2023/07/07 02:00:49;;;;;;;0.70;0.70;;;22.50;59.10;;;;;;8331223;28;20093;-73
2023/07/07 02:04:49;;;;;;;0.88;0.60;;;22.40;59.00;;;;;;8313304;28;20033;-73
2023/07/07 02:08:50;;;;;;;0.60;0.60;;;22.50;59.10;;;;;;8330910;28;20033;-73
2023/07/07 02:12:51;;;;;;;1.20;0.90;;;22.40;59.60;;;;;;8296673;28;20045;-73
2023/07/07 02:16:51;;;;;;;0.80;0.55;;;22.40;59.10;;;;;;8330836;28;20037;-73
2023/07/07 02:20:53;;;;;;;0.70;0.70;;;22.50;59.10;;;;;;8313189;28;20041;-73
2023/07/07 02:24:53;;;;;;;0.80;0.70;;;22.50;59.10;;;;;;8312684;28;20064;-73
2023/07/07 02:28:54;;;;;;;0.55;0.55;;;22.50;59.10;;;;;;8312570;28;20029;-73
2023/07/07 02:32:54;;;;;;;0.80;0.70;;;22.40;59.60;;;;;;8296308;28;20092;-73
2023/07/07 02:36:55;;;;;;;;;;;22.50;59.10;;;;;;8312805;28;20039;-73
2023/07/07 02:40:56;;;;;;;0.60;0.60;;;22.40;59.00;;;;;;8330012;28;19909;-73
2023/07/07 02:44:56;;;;;;;;;;;22.40;59.10;;;;;;8330297;28;20064;-73
2023/07/07 02:48:57;;;;;;;0.70;0.60;;;22.40;59.00;;;;;;8329772;28;19909;-73
2023/07/07 02:52:58;;;;;;;0.82;0.60;;;22.40;59.10;;;;;;8329501;28;20494;-73
2023/07/07 02:56:58;;;;;;;1.20;0.70;;;22.40;59.10;;;;;;8329574;28;20108;-73
2023/07/07 03:01:11;;;;;;;1.38;0.80;;;22.40;59.10;;;;;;8329406;28;20084;-73
2023/07/07 03:05:13;;;;;;;0.80;0.80;;;22.40;59.10;;;;;;8328984;28;20557;-74
2023/07/07 03:09:13;;;;;;;;;;;22.40;59.10;;;;;;8329584;28;20460;-73
2023/07/07 03:13:14;;;;;;;0.63;0.60;;;22.40;59.10;;;;;;8311415;28;19917;-73
2023/07/07 03:17:16;;;;;;;0.85;0.70;;;22.40;59.10;;;;;;8310762;28;20037;-73
2023/07/07 03:21:18;;;;;;;0.75;0.50;;;22.40;59.10;;;;;;8328795;28;20036;-73
2023/07/07 03:25:20;;;;;;;2.22;0.77;;;22.40;59.10;;;;;;8311066;28;20040;-73
2023/07/07 03:29:20;;;;;;;1.23;0.80;;;22.40;59.10;;;;;;8328418;28;20049;-73
2023/07/07 03:33:21;;;;;;;0.93;0.73;;;22.40;59.00;;;;;;8310868;28;20033;-73
2023/07/07 03:37:22;;;;;;;1.00;0.70;;;22.40;59.10;;;;;;8328334;28;20080;-73
2023/07/07 03:41:24;;;;;;;;;;;22.40;59.10;;;;;;8294875;28;20029;-73
2023/07/07 03:45:25;;;;;;;0.80;0.60;;;22.40;59.00;;;;;;8328214;28;19913;-73
2023/07/07 03:49:25;;;;;;;0.70;0.70;;;22.40;59.10;;;;;;8328344;28;20041;-73
2023/07/07 03:53:28;;;;;;;0.85;0.85;;;22.40;59.00;;;;;;8310845;28;20026;-73
2023/07/07 03:57:28;;;;;;;0.85;0.75;;;22.40;59.10;;;;;;8328325;28;20038;-72
2023/07/07 04:01:29;;;;;;;0.80;0.60;;;22.40;59.10;;;;;;8310594;28;20052;-73
2023/07/07 04:05:30;;;;;;;0.77;0.65;;;22.40;59.10;;;;;;8327751;28;20037;-73
2023/07/07 04:09:30;;;;;;;1.00;0.70;;;22.40;59.10;;;;;;8310224;28;20061;-73
2023/07/07 04:13:34;;;;;;;0.65;0.52;;;22.40;59.10;;;;;;8327575;28;20041;-73
2023/07/07 04:17:35;;;;;;;0.65;0.60;;;22.40;59.10;;;;;;8327670;28;20128;-73
2023/07/07 04:21:36;;;;;;;0.80;0.70;;;22.40;59.10;;;;;;8327653;28;20037;-73
2023/07/07 04:25:37;;;;;;;1.00;0.73;;;22.30;59.10;;;;;;8309637;28;20407;-73
2023/07/07 04:29:37;;;;;;;0.65;0.63;;;22.40;59.10;;;;;;8327021;28;20109;-73
2023/07/07 04:33:39;;;;;;;0.85;0.60;;;22.40;59.10;;;;;;8298990;28;20051;-73
2023/07/07 04:37:40;;;;;;;1.02;0.93;;;22.40;59.10;;;;;;8333704;28;20104;-73
2023/07/07 04:41:40;;;;;;;0.70;0.70;;;22.40;59.10;;;;;;8335008;28;20044;-73
2023/07/07 04:45:43;;;;;;;0.68;0.65;;;22.40;59.10;;;;;;8346234;28;20045;-72
2023/07/07 04:49:43;;;;;;;0.73;0.73;;;22.40;59.10;;;;;;8353067;28;20033;-73
2023/07/07 04:53:45;;;;;;;1.00;0.90;;;22.40;59.10;;;;;;8346935;28;20039;-72
2023/07/07 04:57:45;;;;;;;0.88;0.70;;;22.40;59.10;;;;;;8367928;28;20048;-72
2023/07/07 05:01:46;;;;;;;0.90;0.70;;;22.40;59.10;;;;;;8358308;28;20085;-72
2023/07/07 05:05:47;;;;;;;0.70;0.60;;;22.40;59.10;;;;;;8375088;28;20061;-72
2023/07/07 05:09:47;;;;;;;0.90;0.70;;;22.40;59.10;;;;;;8369811;28;20160;-73
2023/07/07 05:13:50;;;;;;;1.33;0.75;;;22.30;59.10;;;;;;8312755;28;20049;-73
2023/07/07 05:17:51;;;;;;;0.60;0.60;;;22.40;59.10;;;;;;8296831;28;20057;-73
2023/07/07 05:21:52;;;;;;;0.70;0.70;;;22.40;59.10;;;;;;8314282;28;20034;-73
2023/07/07 05:25:53;;;;;;;1.02;0.73;;;22.40;59.10;;;;;;8332482;28;20040;-73
2023/07/07 05:29:53;;;;;;;0.95;0.70;;;22.30;59.00;;;;;;8332390;28;20035;-73
2023/07/07 05:33:54;;;;;;;0.60;0.50;;;22.40;59.10;;;;;;8314801;28;20029;-73
2023/07/07 05:37:54;;;;;;;0.90;0.80;;;22.40;59.10;;;;;;8332075;28;20037;-73
2023/07/07 05:41:55;;;;;;;;;;;22.30;59.10;;;;;;8332284;28;20116;-73
2023/07/07 05:45:59;;;;;;;1.40;0.90;;;22.40;59.10;;;;;;8314217;28;19920;-73
2023/07/07 05:50:00;;;;;;;1.25;0.70;;;22.40;59.10;;;;;;8331787;28;20035;-73
2023/07/07 05:54:00;;;;;;;2.05;0.80;;;22.40;59.10;;;;;;8331653;28;20041;-73
2023/07/07 05:58:03;;;;;;;0.70;0.70;;;22.30;59.10;;;;;;8326965;28;20070;-73
2023/07/07 06:02:04;;;;;;;1.73;0.90;;;22.30;59.10;;;;;;8296160;28;20506;-73
2023/07/07 06:06:05;;;;;;;1.35;0.63;;;22.40;59.10;;;;;;8331218;28;20398;-73
2023/07/07 06:10:07;;;;;;;;;;;22.30;59.10;;;;;;8331702;28;20029;-73
2023/07/07 06:14:07;;;;;;;0.65;0.65;;;22.40;59.10;;;;;;8331105;28;19924;-73
2023/07/07 06:18:08;;;;;;;0.73;0.70;;;22.40;59.10;;;;;;8331032;28;20124;-73
2023/07/07 06:22:09;;;;;;;0.82;0.82;;;22.40;59.10;;;;;;8330875;28;20038;-73
2023/07/07 06:26:09;;;;;;;0.93;0.63;;;22.30;59.10;;;;;;8330648;28;20037;-73
2023/07/07 06:30:10;;;;;;;1.13;0.70;;;22.40;59.10;;;;;;8312833;28;20781;-73
2023/07/07 06:34:11;;;;;;;0.73;0.60;;;22.30;59.10;;;;;;8312684;28;20558;-73
2023/07/07 06:38:11;;;;;;;1.00;0.68;;;22.40;59.10;;;;;;8312457;28;20501;-73
2023/07/07 06:42:12;;;;;;;1.38;0.75;;;22.40;59.10;;;;;;8312506;28;20548;-73
2023/07/07 06:46:15;;;;;;;0.95;0.68;;;22.30;59.10;;;;;;8329851;28;20395;-73
2023/07/07 06:50:24;;;;;;;1.15;0.70;;;22.30;59.10;;;;;;8328709;28;20038;-73
2023/07/07 06:54:25;;;;;;;0.82;0.63;;;22.30;59.10;;;;;;8329723;28;20513;-73
2023/07/07 06:58:25;;;;;;;1.15;0.80;;;22.40;59.10;;;;;;8329587;28;20392;-73
2023/07/07 07:02:26;;;;;;;0.75;0.52;;;22.30;59.10;;;;;;8329559;28;20524;-73
2023/07/07 07:06:27;;;;;;;0.57;0.57;;;22.40;59.10;;;;;;8329617;28;20060;-73
2023/07/07 07:10:28;;;;;;;1.20;0.85;;;22.30;59.10;;;;;;8329101;28;20395;-73
2023/07/07 07:14:29;;;;;;;1.10;0.90;;;22.30;59.10;;;;;;8311192;28;20211;-73
2023/07/07 07:18:29;;;;;;;0.85;0.60;;;22.30;59.10;;;;;;8311417;28;20049;-73
2023/07/07 07:22:30;;;;;;;0.82;0.75;;;22.30;59.10;;;;;;8311065;28;20398;-73
2023/07/07 07:26:30;;;;;;;0.98;0.70;;;22.30;59.10;;;;;;8310974;28;20034;-73
2023/07/07 07:30:31;;;;;;;0.80;0.47;;;22.40;59.10;;;;;;8328469;28;20034;-73
2023/07/07 07:34:32;;;;;;;0.73;0.55;;;22.40;59.10;;;;;;8294461;28;20041;-73
2023/07/07 07:38:33;;;;;;;0.80;0.73;;;22.30;59.00;;;;;;8328294;28;20045;-73
2023/07/07 07:42:33;;;;;;;0.80;0.80;;;22.30;59.00;;;;;;8328276;28;20033;-73
2023/07/07 07:46:34;;;;;;;0.93;0.68;;;22.40;59.10;;;;;;8310548;28;20096;-73
2023/07/07 07:50:35;;;;;;;;;;;22.40;59.10;;;;;;8328437;28;20108;-73
2023/07/07 07:54:35;;;;;;;0.60;0.60;;;22.40;59.00;;;;;;8310357;28;20314;-73
2023/07/07 07:58:37;;;;;;;1.10;0.70;;;22.30;59.60;;;;;;8327871;28;20044;-73
2023/07/07 08:02:38;;;;;;;0.75;0.60;;;22.30;59.10;;;;;;8293851;28;20060;-73
2023/07/07 08:06:40;;;;;;;0.75;0.63;;;22.30;59.10;;;;;;8293465;28;20563;-73
2023/07/07 08:10:40;;;;;;;0.70;0.60;;;22.30;59.10;;;;;;8327662;28;20032;-73
2023/07/07 08:14:41;;;;;;;0.90;0.55;;;22.30;59.00;;;;;;8327546;28;20068;-73
2023/07/07 08:18:42;;;;;;;0.80;0.70;;;22.30;59.10;;;;;;8309931;28;20510;-73
2023/07/07 08:22:42;;;;;;;1.25;0.70;;;22.40;59.10;;;;;;8327489;28;20037;-73
2023/07/07 08:26:46;;;;;;;0.85;0.60;;;22.30;59.00;;;;;;8327455;28;20080;-73
2023/07/07 08:30:47;;;;;;;0.80;0.65;;;22.30;59.00;;;;;;8310171;28;20033;-73
2023/07/07 08:34:52;;;;;;;1.40;0.82;;;22.30;59.10;;;;;;8327396;28;20037;-73
2023/07/07 08:38:53;;;;;;;0.52;0.52;;;22.30;59.00;;;;;;8327146;28;20485;-73
2023/07/07 08:42:53;;;;;;;1.15;0.70;;;22.40;59.10;;;;;;8327245;28;20036;-73
2023/07/07 08:47:21;;;;;;;1.90;0.90;;;22.30;59.00;;;;;;8327276;28;20446;-73
2023/07/07 08:51:36;;;;;;;1.05;0.70;;;22.40;59.00;;;;;;8327016;28;20032;-73
2023/07/07 08:55:43;;;;;;;0.85;0.70;;;22.40;59.10;;;;;;8327099;28;20391;-73
2023/07/07 09:00:03;;;;;;;0.75;0.70;;;22.40;59.00;;;;;;8326908;28;20029;-73
2023/07/07 09:04:13;;;;;;;0.60;0.45;;;22.40;59.10;;;;;;8326853;28;20425;-73
2023/07/07 09:08:43;;;;;;;0.70;0.52;;;22.40;59.10;;;;;;8326718;28;20030;-73
2023/07/07 09:12:50;;;;;;;1.38;1.00;;;22.40;59.00;;;;;;8326705;28;20072;-73
2023/07/07 09:16:54;;;;;;;0.93;0.73;;;22.40;59.00;;;;;;8331944;28;20079;-73
2023/07/07 09:20:59;;;;;;;0.80;0.77;;;22.40;59.00;;;;;;8332519;28;20028;-73
2023/07/07 09:25:28;;;;;;;0.52;0.52;;;22.40;59.00;;;;;;8314795;28;20432;-73
2023/07/07 09:29:30;;;;;;;0.60;0.60;;;22.30;59.00;;;;;;8332688;28;20065;-73
2023/07/07 09:33:31;;;;;;;0.95;0.70;;;22.40;59.00;;;;;;8332307;28;20033;-73
2023/07/07 09:37:48;;;;;;;0.60;0.60;;;22.40;59.00;;;;;;8314365;28;20175;-73
2023/07/07 09:42:01;;;;;;;1.08;0.65;;;22.30;59.00;;;;;;8331931;28;20040;-73
2023/07/07 09:46:08;;;;;;;0.90;0.65;;;22.40;59.00;;;;;;8331609;28;20060;-73
2023/07/07 09:50:24;;;;;;;0.63;0.55;;;22.40;59.00;;;;;;8331749;28;20033;-73
2023/07/07 09:54:25;;;;;;;1.02;0.70;;;22.40;59.00;;;;;;8331498;28;20067;-73
2023/07/07 09:58:37;;;;;;;0.90;0.73;;;22.40;59.00;;;;;;8313030;28;20555;-73
2023/07/07 10:02:45;;;;;;;1.13;0.75;;;22.40;59.00;;;;;;8313773;28;20018;-73
2023/07/07 10:07:06;;;;;;;0.80;0.70;;;22.40;59.00;;;;;;8331124;28;20061;-73
2023/07/07 10:11:22;;;;;;;0.60;0.60;;;22.40;59.00;;;;;;8331346;28;20033;-73
2023/07/07 10:15:44;;;;;;;0.68;0.60;;;22.40;59.00;;;;;;8330963;28;20057;-73
2023/07/07 10:19:56;;;;;;;1.00;0.60;;;22.40;59.00;;;;;;8310558;28;20037;-73
2023/07/07 10:23:56;;;;;;;0.63;0.63;;;22.30;59.00;;;;;;8327160;28;20030;-73
2023/07/07 10:27:58;;;;;;;1.10;0.80;;;22.40;59.00;;;;;;8328139;28;20550;-73
2023/07/07 10:31:59;;;;;;;;;;;22.40;59.20;;;;;;8331043;28;20087;-73
2023/07/07 10:36:24;;;;;;;0.47;0.45;;;22.40;59.00;;;;;;8330371;28;19909;-73
2023/07/07 10:40:25;;;;;;;0.93;0.80;;;22.40;59.00;;;;;;8330387;28;20032;-73
2023/07/07 10:49:25;;;;;;;1.05;0.82;;;22.40;59.00;;;;;;8329913;28;20425;-73
2023/07/07 10:53:42;;;;;;;0.50;0.50;;;22.40;59.00;;;;;;8312278;28;20040;-73
2023/07/07 10:58:03;;;;;;;0.63;0.60;;;22.40;59.00;;;;;;8329724;28;20423;-73
2023/07/07 11:02:17;;;;;;;;;;;22.40;59.00;;;;;;8312375;28;20037;-73
2023/07/07 11:06:52;;;;;;;0.50;0.50;;;22.40;59.00;;;;;;8312198;28;19909;-73
2023/07/07 11:11:04;;;;;;;0.60;0.50;;;22.40;59.00;;;;;;8329421;28;20037;-73
2023/07/07 11:15:38;;;;;;;0.65;0.60;;;22.40;59.00;;;;;;8276259;28;20486;-73
2023/07/07 11:19:53;;;;;;;1.08;0.70;;;22.40;58.90;;;;;;8279825;28;20459;-73
2023/07/07 11:24:10;;;;;;;1.23;0.70;;;22.40;59.00;;;;;;8297612;28;20112;-73
2023/07/07 11:28:44;;;;;;;1.13;0.68;;;22.40;59.00;;;;;;8297760;28;20014;-73
2023/07/07 11:33:16;;;;;;;0.40;0.40;;;22.40;59.00;;;;;;8278393;28;20036;-73
2023/07/07 11:37:25;;;;;;;;;;;22.40;59.00;;;;;;8296012;28;20038;-73
2023/07/07 11:41:48;;;;;;;0.80;0.60;;;22.40;59.00;;;;;;8295895;28;20397;-73
2023/07/07 11:45:57;;;;;;;0.82;0.68;;;22.30;59.30;;;;;;8295616;28;20123;-73
2023/07/07 11:50:07;;;;;;;1.17;0.75;;;22.40;59.00;;;;;;8273505;28;20106;-73
2023/07/07 11:54:22;;;;;;;0.80;0.60;;;22.40;59.00;;;;;;8294145;28;20033;-73
2023/07/07 11:58:44;;;;;;;0.95;0.60;;;22.40;58.90;;;;;;8294797;28;20415;-73
2023/07/07 12:02:55;;;;;;;0.75;0.50;;;22.50;59.00;;;;;;8277949;28;20041;-73
2023/07/07 12:07:09;;;;;;;0.93;0.70;;;22.40;58.90;;;;;;8277793;28;20422;-73
2023/07/07 12:11:13;;;;;;;0.50;0.50;;;22.40;58.90;;;;;;8295454;28;20065;-73
2023/07/07 12:15:24;;;;;;;1.85;0.65;;;22.40;58.90;;;;;;8295266;28;20065;-73
2023/07/07 12:19:39;;;;;;;0.88;0.65;;;22.40;58.90;;;;;;8277791;28;20037;-73
2023/07/07 12:23:51;;;;;;;0.60;0.60;;;22.50;58.90;;;;;;8295351;28;20117;-73
2023/07/07 12:27:53;;;;;;;0.77;0.60;;;22.40;58.90;;;;;;8276895;28;20026;-73
2023/07/07 12:31:54;;;;;;;1.33;0.60;;;22.50;58.90;;;;;;8292746;28;20030;-73
2023/07/07 12:35:58;;;;;;;0.60;0.50;;;22.40;58.80;;;;;;8292156;28;20037;-73
2023/07/07 12:40:09;;;;;;;0.77;0.65;;;22.40;58.80;;;;;;8293091;28;20041;-73
2023/07/07 12:44:11;;;;;;;1.38;0.82;;;22.40;58.80;;;;;;8294749;28;20037;-73
2023/07/07 12:48:19;;;;;;;0.70;0.60;;;22.40;58.80;;;;;;8294814;28;20029;-73
2023/07/07 12:52:19;;;;;;;0.80;0.75;;;22.40;59.30;;;;;;8300835;28;20022;-73
2023/07/07 12:56:23;;;;;;;0.82;0.60;;;22.40;58.80;;;;;;8300749;28;20126;-73
2023/07/07 13:00:38;;;;;;;1.88;0.60;;;22.50;58.90;;;;;;8283032;28;20034;-73
2023/07/07 13:04:49;;;;;;;0.77;0.60;;;22.50;58.90;;;;;;8300428;28;20085;-73
2023/07/07 13:09:18;;;;;;;0.80;0.60;;;22.50;58.90;;;;;;8300289;28;20100;-73
2023/07/07 13:13:25;;;;;;;0.65;0.50;;;22.50;58.90;;;;;;8287715;28;20049;-73
2023/07/07 13:17:27;;;;;;;0.90;0.70;;;22.50;58.80;;;;;;8332878;28;20068;-73
2023/07/07 13:21:36;;;;;;;0.93;0.60;;;22.50;58.80;;;;;;8315311;28;20041;-73
2023/07/07 13:25:37;;;;;;;0.60;0.50;;;22.50;58.80;;;;;;8315047;28;20087;-73
2023/07/07 13:29:38;;;;;;;;;;;22.50;58.80;;;;;;8332724;28;20038;-73
2023/07/07 13:33:40;;;;;;;;;;;22.50;58.80;;;;;;8315507;28;19905;-73
2023/07/07 13:37:40;;;;;;;0.88;0.55;;;22.50;58.80;;;;;;8333098;28;19954;-73
2023/07/07 13:41:45;;;;;;;0.80;0.70;;;22.50;58.80;;;;;;8315805;28;20037;-73
2023/07/07 13:45:46;;;;;;;0.85;0.70;;;22.50;58.80;;;;;;8299010;28;20596;-73
2023/07/07 13:49:47;;;;;;;0.70;0.70;;;22.50;58.80;;;;;;8332926;28;20384;-73
2023/07/07 13:53:47;;;;;;;0.65;0.60;;;22.50;58.80;;;;;;8315699;28;20487;-73
2023/07/07 13:57:48;;;;;;;0.75;0.65;;;22.40;58.70;;;;;;8315360;28;20044;-73
2023/07/07 14:01:50;;;;;;;1.02;0.70;;;22.50;58.80;;;;;;8299210;28;20037;-73
2023/07/07 14:05:55;;;;;;;0.57;0.50;;;22.50;58.80;;;;;;8333022;28;20168;-73
2023/07/07 14:09:56;;;;;;;0.70;0.70;;;22.50;58.80;;;;;;8335150;28;20088;-73
2023/07/07 14:14:00;;;;;;;;;;;22.50;58.80;;;;;;8341405;28;20046;-73
2023/07/07 14:18:04;;;;;;;0.73;0.60;;;22.50;58.70;;;;;;8368872;28;19897;-73
2023/07/07 14:22:06;;;;;;;1.02;0.73;;;22.50;58.70;;;;;;8371978;28;20045;-73
2023/07/07 14:26:14;;;;;;;0.82;0.60;;;22.50;58.70;;;;;;8372422;28;20041;-72
2023/07/07 14:30:22;;;;;;;0.95;0.57;;;22.50;58.70;;;;;;8355185;28;20049;-73
2023/07/07 14:34:22;;;;;;;0.80;0.70;;;22.50;58.70;;;;;;8312370;28;20483;-73
2023/07/07 14:38:30;;;;;;;1.25;0.60;;;22.50;58.70;;;;;;8330360;28;20458;-73
2023/07/07 14:42:31;;;;;;;0.80;0.52;;;22.50;58.70;;;;;;8312200;28;20018;-73
2023/07/07 14:46:37;;;;;;;0.50;0.50;;;22.50;58.70;;;;;;8325292;28;20030;-73
2023/07/07 14:50:38;;;;;;;0.70;0.68;;;22.60;58.70;;;;;;8310197;28;20036;-73
2023/07/07 14:54:38;;;;;;;0.73;0.60;;;22.50;58.70;;;;;;8329386;28;20033;-73
2023/07/07 14:58:41;;;;;;;1.13;0.70;;;22.50;58.70;;;;;;8311931;28;20041;-73
2023/07/07 15:02:42;;;;;;;0.65;0.60;;;22.50;58.70;;;;;;8329546;28;20033;-73
2023/07/07 15:06:51;;;;;;;0.73;0.63;;;22.60;58.70;;;;;;8329047;28;20135;-73
2023/07/07 15:10:51;;;;;;;0.85;0.60;;;22.50;58.70;;;;;;8311443;28;20037;-73
2023/07/07 15:14:52;;;;;;;0.65;0.50;;;22.50;58.60;;;;;;8293086;28;20129;-73
2023/07/07 15:18:53;;;;;;;0.70;0.50;;;22.60;58.80;;;;;;8296338;28;20059;-73
2023/07/07 15:22:53;;;;;;;1.25;0.70;;;22.50;58.70;;;;;;8278805;28;20605;-73
2023/07/07 15:26:54;;;;;;;1.17;0.60;;;22.50;58.70;;;;;;8296092;28;20061;-73
2023/07/07 15:30:55;;;;;;;0.50;0.50;;;22.50;58.70;;;;;;8296073;28;20097;-73
2023/07/07 15:34:56;;;;;;;0.55;0.50;;;22.60;58.70;;;;;;8295927;28;20480;-73
2023/07/07 15:38:57;;;;;;;0.63;0.47;;;22.50;58.70;;;;;;8295753;28;20049;-73
2023/07/07 15:42:58;;;;;;;0.73;0.63;;;22.50;58.60;;;;;;8262049;28;20084;-73
2023/07/07 15:46:58;;;;;;;0.75;0.52;;;22.60;58.70;;;;;;8278008;28;20030;-73
2023/07/07 15:50:59;;;;;;;0.73;0.68;;;22.60;58.70;;;;;;8277914;28;20042;-73
2023/07/07 15:55:00;;;;;;;;;;;22.50;58.60;;;;;;8295947;28;20038;-73
2023/07/07 15:59:01;;;;;;;0.70;0.50;;;22.60;59.20;;;;;;8295306;28;19910;-73
2023/07/07 16:03:02;;;;;;;0.55;0.55;;;22.60;58.70;;;;;;8295330;28;20037;-73
2023/07/07 16:07:03;;;;;;;0.63;0.52;;;22.60;58.70;;;;;;8277739;28;20026;-73
2023/07/07 16:11:19;;;;;;;0.75;0.60;;;22.50;58.60;;;;;;8277808;28;20597;-73
2023/07/07 16:15:20;;;;;;;1.85;1.40;;;22.60;58.70;;;;;;8308465;28;20050;-73
2023/07/07 16:19:20;;;;;;;0.63;0.57;;;22.50;58.60;;;;;;8326578;28;20040;-73
2023/07/07 16:23:21;;;;;;;0.82;0.70;;;22.50;58.70;;;;;;8329543;28;20379;-73
2023/07/07 16:27:22;;;;;;;0.82;0.52;;;22.50;58.60;;;;;;8333211;28;20092;-73
2023/07/07 16:31:25;;;;;;;0.63;0.63;;;22.50;58.70;;;;;;8334260;28;20040;-73
2023/07/07 16:35:26;;;;;;;1.02;0.77;;;22.60;58.70;;;;;;8334075;28;20037;-73
2023/07/07 16:39:27;;;;;;;0.85;0.55;;;22.50;58.70;;;;;;8316401;28;20037;-73
2023/07/07 16:43:27;;;;;;;0.63;0.60;;;22.50;58.70;;;;;;8333821;28;20038;-73
2023/07/07 16:47:28;;;;;;;0.70;0.60;;;22.60;58.70;;;;;;8316247;28;20045;-73
2023/07/07 16:51:29;;;;;;;0.73;0.60;;;22.50;58.70;;;;;;8333701;28;20033;-73
2023/07/07 16:55:29;;;;;;;0.73;0.70;;;22.50;58.70;;;;;;8316367;28;20037;-73
2023/07/07 16:59:30;;;;;;;0.50;0.50;;;22.50;58.70;;;;;;8315730;28;20087;-73
2023/07/07 17:03:30;;;;;;;0.50;0.40;;;22.50;58.60;;;;;;8315727;28;20034;-73
2023/07/07 17:07:31;;;;;;;0.95;0.60;;;22.50;58.60;;;;;;8327108;28;20033;-73
2023/07/07 17:11:32;;;;;;;1.65;0.73;;;22.50;58.60;;;;;;8333237;28;20127;-73
2023/07/07 17:15:33;;;;;;;0.77;0.73;;;22.50;58.60;;;;;;8298800;28;20060;-73
2023/07/07 17:19:33;;;;;;;;;;;22.60;58.70;;;;;;8315683;28;20034;-73
2023/07/07 17:23:34;;;;;;;0.70;0.53;;;22.60;58.70;;;;;;8332786;28;19932;-73
2023/07/07 17:27:35;;;;;;;0.52;0.50;;;22.60;59.20;;;;;;8332480;28;20037;-73
2023/07/07 17:31:35;;;;;;;;;;;22.60;58.70;;;;;;8315249;28;20029;-73
2023/07/07 17:35:36;;;;;;;1.40;0.60;;;22.50;58.60;;;;;;8331721;28;19936;-73
2023/07/07 17:39:36;;;;;;;0.65;0.57;;;22.60;58.70;;;;;;8332271;28;20038;-73
2023/07/07 17:43:38;;;;;;;0.65;0.60;;;22.60;58.70;;;;;;8314527;28;20044;-73
2023/07/07 17:47:39;;;;;;;0.70;0.70;;;22.50;58.70;;;;;;8332206;28;20045;-73
2023/07/07 17:51:39;;;;;;;0.75;0.52;;;22.50;58.70;;;;;;8331869;28;20029;-73
2023/07/07 17:55:41;;;;;;;0.98;0.80;;;22.50;58.70;;;;;;8331762;28;20037;-73
2023/07/07 17:59:41;;;;;;;0.80;0.70;;;22.60;58.70;;;;;;8297423;28;20065;-73
2023/07/07 18:03:42;;;;;;;0.70;0.70;;;22.50;58.70;;;;;;8313798;28;20243;-73
2023/07/07 18:07:43;;;;;;;0.65;0.57;;;22.60;58.70;;;;;;8313465;28;20036;-73
2023/07/07 18:11:44;;;;;;;0.82;0.60;;;22.50;58.70;;;;;;8329621;28;20482;-73
2023/07/07 18:15:44;;;;;;;;;;;22.60;58.70;;;;;;8331289;28;20495;-73
2023/07/07 18:19:45;;;;;;;0.50;0.50;;;22.50;58.70;;;;;;8330961;28;19979;-73
2023/07/07 18:23:46;;;;;;;0.73;0.68;;;22.60;58.70;;;;;;8310499;28;20045;-73
2023/07/07 18:27:47;;;;;;;0.70;0.70;;;22.60;58.70;;;;;;8308927;28;20061;-73
2023/07/07 18:31:48;;;;;;;1.15;0.65;;;22.50;58.60;;;;;;8329871;28;20041;-73
2023/07/07 18:35:49;;;;;;;0.50;0.50;;;22.50;58.70;;;;;;8330454;28;20059;-73
2023/07/07 18:39:49;;;;;;;0.45;0.40;;;22.50;58.60;;;;;;8312604;28;20084;-73
2023/07/07 18:43:50;;;;;;;0.95;0.80;;;22.50;58.60;;;;;;8330165;28;20132;-73
2023/07/07 18:47:58;;;;;;;;;;;22.50;58.60;;;;;;8330051;28;20026;-73
2023/07/07 18:51:59;;;;;;;1.42;0.70;;;22.60;58.70;;;;;;8312345;28;20404;-73
2023/07/07 18:55:59;;;;;;;0.77;0.60;;;22.60;58.70;;;;;;8295707;28;20691;-73
2023/07/07 19:00:00;;;;;;;1.65;0.40;;;22.50;58.70;;;;;;8311918;28;20083;-73
2023/07/07 19:04:01;;;;;;;;;;;22.50;58.70;;;;;;8312197;28;20033;-73
2023/07/07 19:08:01;;;;;;;0.70;0.60;;;22.60;58.70;;;;;;8302004;28;19965;-73
2023/07/07 19:12:08;;;;;;;0.80;0.60;;;22.50;58.70;;;;;;8260306;28;20033;-73
2023/07/07 19:16:20;;;;;;;0.98;0.65;;;22.50;58.70;;;;;;8294837;28;20060;-73
2023/07/07 19:20:21;;;;;;;1.00;0.70;;;22.50;58.70;;;;;;8296094;28;20029;-73
2023/07/07 19:24:22;;;;;;;0.55;0.55;;;22.50;58.70;;;;;;8296200;28;20033;-73
2023/07/07 19:28:32;;;;;;;0.93;0.60;;;22.50;58.70;;;;;;8278583;28;20037;-73
2023/07/07 19:32:33;;;;;;;0.60;0.60;;;22.50;58.70;;;;;;8296153;28;20064;-73
2023/07/07 19:36:39;;;;;;;0.90;0.55;;;22.50;58.70;;;;;;8309219;28;20080;-73
2023/07/07 19:40:40;;;;;;;0.60;0.60;;;22.50;58.70;;;;;;8328567;28;20041;-73
2023/07/07 19:44:41;;;;;;;0.45;0.45;;;22.50;58.60;;;;;;8328415;28;20068;-73
2023/07/07 19:48:41;;;;;;;0.50;0.50;;;22.50;58.60;;;;;;8294242;28;20037;-73
2023/07/07 19:52:42;;;;;;;0.60;0.60;;;22.50;58.70;;;;;;8328304;28;20037;-73
2023/07/07 19:56:44;;;;;;;;;;;22.50;58.60;;;;;;8310896;28;20041;-73
2023/07/07 20:00:44;;;;;;;1.15;0.70;;;22.50;58.60;;;;;;8327787;28;19954;-73
2023/07/07 20:04:45;;;;;;;0.57;0.55;;;22.50;58.60;;;;;;8289356;28;20029;-73
2023/07/07 20:08:46;;;;;;;0.43;0.43;;;22.60;58.70;;;;;;8310259;28;20115;-73
2023/07/07 20:12:48;;;;;;;0.55;0.55;;;22.60;58.70;;;;;;8326469;28;20041;-73
2023/07/07 20:16:52;;;;;;;0.35;0.35;;;22.60;58.80;;;;;;8327886;28;20044;-73
2023/07/07 20:20:53;;;;;;;0.73;0.50;;;22.50;58.70;;;;;;8326690;28;20037;-73
2023/07/07 20:24:54;;;;;;;0.50;0.47;;;22.50;58.70;;;;;;8327998;28;20065;-73
2023/07/07 20:28:55;;;;;;;;;;;22.50;58.70;;;;;;8327474;28;20034;-73
2023/07/07 20:32:56;;;;;;;0.40;0.40;;;22.50;58.70;;;;;;8328042;28;19909;-73
2023/07/07 20:36:56;;;;;;;0.50;0.50;;;22.50;58.70;;;;;;8305651;28;20045;-73
2023/07/07 20:40:57;;;;;;;0.50;0.50;;;22.50;58.70;;;;;;8306755;28;20030;-73
2023/07/07 20:44:58;;;;;;;0.73;0.63;;;22.50;58.70;;;;;;8308660;28;20033;-73
2023/07/07 20:49:01;;;;;;;0.55;0.47;;;22.50;58.70;;;;;;8327415;28;20502;-73
2023/07/07 20:53:02;;;;;;;1.27;0.65;;;22.50;58.70;;;;;;8327278;28;20056;-73
2023/07/07 20:57:03;;;;;;;1.05;0.63;;;22.60;58.70;;;;;;8293217;28;20033;-73
2023/07/07 21:01:08;;;;;;;0.85;0.50;;;22.50;58.70;;;;;;8309374;28;20495;-73
2023/07/07 21:05:08;;;;;;;0.98;0.50;;;22.60;58.70;;;;;;8326828;28;20037;-73
2023/07/07 21:09:12;;;;;;;1.08;0.60;;;22.50;58.70;;;;;;8309442;28;20076;-73
2023/07/07 21:13:13;;;;;;;0.43;0.40;;;22.50;58.70;;;;;;8332769;28;20557;-73
2023/07/07 21:17:18;;;;;;;0.60;0.40;;;22.50;58.70;;;;;;8332966;28;20390;-73
2023/07/07 21:21:26;;;;;;;0.47;0.45;;;22.50;58.70;;;;;;8332763;28;20030;-73
2023/07/07 21:25:26;;;;;;;0.60;0.40;;;22.50;58.70;;;;;;8332674;28;20037;-73